createdAt,value
2023-03-29T00:00:04.487Z,2.88
2023-03-29T00:01:04.606Z,2.84
2023-03-29T00:02:04.568Z,2.81
2023-03-29T00:03:04.586Z,2.78
2023-03-29T00:04:04.740Z,2.76
2023-03-29T00:05:04.440Z,2.76
2023-03-29T00:06:04.407Z,2.77
2023-03-29T00:07:04.798Z,2.78
2023-03-29T00:08:04.667Z,2.79
2023-03-29T00:09:04.365Z,2.79
2023-03-29T00:10:04.450Z,2.80
2023-03-29T00:11:04.636Z,2.81
2023-03-29T00:12:04.345Z,2.84
2023-03-29T00:13:04.327Z,2.87
2023-03-29T00:14:04.332Z,2.88
2023-03-29T00:15:04.321Z,2.89
2023-03-29T00:16:04.309Z,2.89
2023-03-29T00:17:04.326Z,2.89
2023-03-29T00:18:04.275Z,2.90
2023-03-29T00:19:04.236Z,2.91
2023-03-29T00:20:04.255Z,2.91
2023-03-29T00:21:04.555Z,2.91
2023-03-29T00:22:04.205Z,2.91
2023-03-29T00:23:04.204Z,2.90
2023-03-29T00:24:04.173Z,2.90
2023-03-29T00:25:04.192Z,2.88
2023-03-29T00:26:07.183Z,2.87
2023-03-29T00:27:04.243Z,2.86
2023-03-29T00:28:04.125Z,2.84
2023-03-29T00:29:04.116Z,2.82
2023-03-29T00:30:04.114Z,2.81
2023-03-29T00:31:04.559Z,2.80
2023-03-29T00:32:04.157Z,2.80
2023-03-29T00:33:04.131Z,2.79
2023-03-29T00:34:04.064Z,2.78
2023-03-29T00:35:04.031Z,2.77
2023-03-29T00:36:04.115Z,2.77
2023-03-29T00:37:04.012Z,2.79
2023-03-29T00:38:04.023Z,2.82
2023-03-29T00:39:04.024Z,2.85
2023-03-29T00:40:03.972Z,2.88
2023-03-29T00:41:04.301Z,2.89
2023-03-29T00:42:03.970Z,2.91
2023-03-29T00:43:03.957Z,2.91
2023-03-29T00:44:03.964Z,2.91
2023-03-29T00:45:04.015Z,2.90
2023-03-29T00:46:03.928Z,2.88
2023-03-29T00:47:03.948Z,2.87
2023-03-29T00:48:03.947Z,2.85
2023-03-29T00:49:03.869Z,2.83
2023-03-29T00:50:03.874Z,2.82
2023-03-29T00:51:04.151Z,2.83
2023-03-29T00:52:03.823Z,2.85
2023-03-29T00:53:03.838Z,2.89
2023-03-29T00:54:03.782Z,2.94
2023-03-29T00:55:03.807Z,3.01
2023-03-29T00:56:03.805Z,3.06
2023-03-29T00:57:03.824Z,3.09
2023-03-29T00:58:03.745Z,3.11
2023-03-29T00:59:03.742Z,3.11
2023-03-29T01:00:03.717Z,3.12
2023-03-29T01:01:03.981Z,3.14
2023-03-29T01:02:03.810Z,3.16
2023-03-29T01:03:03.813Z,3.19
2023-03-29T01:04:03.696Z,3.21
2023-03-29T01:05:03.653Z,3.23
2023-03-29T01:06:03.661Z,3.23
2023-03-29T01:07:03.704Z,3.22
2023-03-29T01:08:03.641Z,3.21
2023-03-29T01:09:03.624Z,3.19
2023-03-29T01:10:03.587Z,3.18
2023-03-29T01:11:03.870Z,3.18
2023-03-29T01:12:03.580Z,3.18
2023-03-29T01:13:03.551Z,3.17
2023-03-29T01:14:03.577Z,3.17
2023-03-29T01:15:03.548Z,3.16
2023-03-29T01:16:03.567Z,3.14
2023-03-29T01:17:03.503Z,3.13
2023-03-29T01:18:03.538Z,3.11
2023-03-29T01:19:03.499Z,3.09
2023-03-29T01:20:03.507Z,3.07
2023-03-29T01:21:03.738Z,3.06
2023-03-29T01:22:03.444Z,3.05
2023-03-29T01:23:03.431Z,3.03
2023-03-29T01:24:03.429Z,3.03
2023-03-29T01:25:03.418Z,3.02
2023-03-29T01:26:03.441Z,3.01
2023-03-29T01:27:03.403Z,3.01
2023-03-29T01:28:03.383Z,3.02
2023-03-29T01:29:03.368Z,3.04
2023-03-29T01:30:03.337Z,3.07
2023-03-29T01:31:03.471Z,3.10
2023-03-29T01:32:03.420Z,3.13
2023-03-29T01:33:03.340Z,3.15
2023-03-29T01:34:03.296Z,3.15
2023-03-29T01:35:03.269Z,3.15
2023-03-29T01:36:03.277Z,3.14
2023-03-29T01:37:03.258Z,3.14
2023-03-29T01:38:03.285Z,3.15
2023-03-29T01:39:03.239Z,3.16
2023-03-29T01:40:03.241Z,3.18
2023-03-29T01:41:03.783Z,3.21
2023-03-29T01:42:03.180Z,3.24
2023-03-29T01:43:03.221Z,3.27
2023-03-29T01:44:03.183Z,3.30
2023-03-29T01:45:03.170Z,3.33
2023-03-29T01:46:03.146Z,3.35
2023-03-29T01:47:03.120Z,3.36
2023-03-29T01:48:03.130Z,3.36
2023-03-29T01:49:03.097Z,3.36
2023-03-29T01:50:03.114Z,3.37
2023-03-29T01:51:03.241Z,3.39
2023-03-29T01:52:03.054Z,3.44
2023-03-29T01:53:03.051Z,3.52
2023-03-29T01:54:03.032Z,3.61
2023-03-29T01:55:03.050Z,3.67
2023-03-29T01:56:03.058Z,3.71
2023-03-29T01:57:03.073Z,3.73
2023-03-29T01:58:02.985Z,3.73
2023-03-29T01:59:03.035Z,3.72
2023-03-29T02:00:02.991Z,3.70
2023-03-29T02:01:03.314Z,3.72
2023-03-29T02:02:03.387Z,3.77
2023-03-29T02:03:03.029Z,3.86
2023-03-29T02:04:02.908Z,3.93
2023-03-29T02:05:02.904Z,3.99
2023-03-29T02:06:02.890Z,4.03
2023-03-29T02:07:02.873Z,4.06
2023-03-29T02:08:02.906Z,4.08
2023-03-29T02:09:02.852Z,4.08
2023-03-29T02:10:02.852Z,4.07
2023-03-29T02:11:03.014Z,4.05
2023-03-29T02:12:02.794Z,4.03
2023-03-29T02:13:02.812Z,4.00
2023-03-29T02:14:02.821Z,3.96
2023-03-29T02:15:02.761Z,3.93
2023-03-29T02:16:02.867Z,3.90
2023-03-29T02:17:02.735Z,3.88
2023-03-29T02:18:02.764Z,3.86
2023-03-29T02:19:02.708Z,3.87
2023-03-29T02:20:02.732Z,3.87
2023-03-29T02:21:02.865Z,3.88
2023-03-29T02:22:02.692Z,3.91
2023-03-29T02:23:02.676Z,3.94
2023-03-29T02:24:02.646Z,3.95
2023-03-29T02:25:02.638Z,3.94
2023-03-29T02:26:02.652Z,3.94
2023-03-29T02:27:02.616Z,3.93
2023-03-29T02:28:02.613Z,3.90
2023-03-29T02:29:02.611Z,3.89
2023-03-29T02:30:02.574Z,3.90
2023-03-29T02:31:02.760Z,3.91
2023-03-29T02:32:02.593Z,3.91
2023-03-29T02:33:02.587Z,3.91
2023-03-29T02:34:02.525Z,3.91
2023-03-29T02:35:02.526Z,3.90
2023-03-29T02:36:02.584Z,3.88
2023-03-29T02:37:02.482Z,3.87
2023-03-29T02:38:02.517Z,3.84
2023-03-29T02:39:02.473Z,3.82
2023-03-29T02:40:02.497Z,3.79
2023-03-29T02:41:02.679Z,3.79
2023-03-29T02:42:02.435Z,3.80
2023-03-29T02:43:02.446Z,3.82
2023-03-29T02:44:02.418Z,3.85
2023-03-29T02:45:02.393Z,3.88
2023-03-29T02:46:02.382Z,3.89
2023-03-29T02:47:02.376Z,3.90
2023-03-29T02:48:02.387Z,3.89
2023-03-29T02:49:02.372Z,3.88
2023-03-29T02:50:02.380Z,3.87
2023-03-29T02:51:02.581Z,3.85
2023-03-29T02:52:02.303Z,3.83
2023-03-29T02:53:02.287Z,3.81
2023-03-29T02:54:02.295Z,3.79
2023-03-29T02:55:02.270Z,3.77
2023-03-29T02:56:02.345Z,3.74
2023-03-29T02:57:02.281Z,3.72
2023-03-29T02:58:02.237Z,3.70
2023-03-29T02:59:02.238Z,3.68
2023-03-29T03:00:02.212Z,3.67
2023-03-29T03:01:02.428Z,3.66
2023-03-29T03:02:02.211Z,3.65
2023-03-29T03:03:02.408Z,3.65
2023-03-29T03:04:02.235Z,3.66
2023-03-29T03:05:02.165Z,3.66
2023-03-29T03:06:02.126Z,3.66
2023-03-29T03:07:02.129Z,3.66
2023-03-29T03:08:02.149Z,3.65
2023-03-29T03:09:02.122Z,3.67
2023-03-29T03:10:02.066Z,3.69
2023-03-29T03:11:02.288Z,3.73
2023-03-29T03:12:02.084Z,3.75
2023-03-29T03:13:02.070Z,3.77
2023-03-29T03:14:02.075Z,3.78
2023-03-29T03:15:02.035Z,3.78
2023-03-29T03:16:02.013Z,3.78
2023-03-29T03:17:04.584Z,3.78
2023-03-29T03:18:02.030Z,3.77
2023-03-29T03:19:01.995Z,3.76
2023-03-29T03:20:02.000Z,3.75
2023-03-29T03:21:02.460Z,3.74
2023-03-29T03:22:01.932Z,3.75
2023-03-29T03:23:01.922Z,3.79
2023-03-29T03:24:01.915Z,3.84
2023-03-29T03:25:01.880Z,3.90
2023-03-29T03:26:01.911Z,3.96
2023-03-29T03:27:01.888Z,4.01
2023-03-29T03:28:01.835Z,4.05
2023-03-29T03:29:01.823Z,4.05
2023-03-29T03:30:01.856Z,4.05
2023-03-29T03:31:02.037Z,4.06
2023-03-29T03:32:01.855Z,4.07
2023-03-29T03:33:01.809Z,4.08
2023-03-29T03:34:01.770Z,4.08
2023-03-29T03:35:01.739Z,4.08
2023-03-29T03:36:01.782Z,4.07
2023-03-29T03:37:01.829Z,4.05
2023-03-29T03:38:01.724Z,4.03
2023-03-29T03:39:01.699Z,4.02
2023-03-29T03:40:01.687Z,4.02
2023-03-29T03:41:02.012Z,4.04
2023-03-29T03:42:01.656Z,4.06
2023-03-29T03:43:01.673Z,4.07
2023-03-29T03:44:01.672Z,4.08
2023-03-29T03:45:01.636Z,4.09
2023-03-29T03:46:01.669Z,4.09
2023-03-29T03:47:01.608Z,4.08
2023-03-29T03:48:01.667Z,4.07
2023-03-29T03:49:01.654Z,4.06
2023-03-29T03:50:01.647Z,4.04
2023-03-29T03:51:01.780Z,4.03
2023-03-29T03:52:01.532Z,4.02
2023-03-29T03:53:01.542Z,4.01
2023-03-29T03:54:01.506Z,3.99
2023-03-29T03:55:01.500Z,3.97
2023-03-29T03:56:01.518Z,3.98
2023-03-29T03:57:01.522Z,3.99
2023-03-29T03:58:01.497Z,4.00
2023-03-29T03:59:01.456Z,4.00
2023-03-29T04:00:01.463Z,3.99
2023-03-29T04:01:01.685Z,3.97
2023-03-29T04:02:01.509Z,3.95
2023-03-29T04:03:01.581Z,3.92
2023-03-29T04:04:01.657Z,3.89
2023-03-29T04:05:01.365Z,3.86
2023-03-29T04:06:01.368Z,3.83
2023-03-29T04:07:01.351Z,3.80
2023-03-29T04:08:01.361Z,3.77
2023-03-29T04:09:01.340Z,3.75
2023-03-29T04:10:01.301Z,3.72
2023-03-29T04:11:01.497Z,3.70
2023-03-29T04:12:01.303Z,3.68
2023-03-29T04:13:01.312Z,3.66
2023-03-29T04:14:01.340Z,3.65
2023-03-29T04:15:01.298Z,3.64
2023-03-29T04:16:01.840Z,3.63
2023-03-29T04:17:01.238Z,3.63
2023-03-29T04:18:01.228Z,3.64
2023-03-29T04:19:01.294Z,3.65
2023-03-29T04:20:01.241Z,3.67
2023-03-29T04:21:01.517Z,3.68
2023-03-29T04:22:01.188Z,3.68
2023-03-29T04:23:01.165Z,3.67
2023-03-29T04:24:01.173Z,3.67
2023-03-29T04:25:01.113Z,3.67
2023-03-29T04:26:01.138Z,3.67
2023-03-29T04:27:01.086Z,3.68
2023-03-29T04:28:01.120Z,3.69
2023-03-29T04:29:01.088Z,3.69
2023-03-29T04:30:01.052Z,3.68
2023-03-29T04:31:01.280Z,3.67
2023-03-29T04:32:01.095Z,3.67
2023-03-29T04:33:01.135Z,3.68
2023-03-29T04:34:01.033Z,3.66
2023-03-29T04:35:00.999Z,3.63
2023-03-29T04:36:01.031Z,3.60
2023-03-29T04:37:00.992Z,3.57
2023-03-29T04:38:01.035Z,3.55
2023-03-29T04:39:00.959Z,3.52
2023-03-29T04:40:00.936Z,3.50
2023-03-29T04:41:01.318Z,3.47
2023-03-29T04:42:00.930Z,3.45
2023-03-29T04:43:01.023Z,3.43
2023-03-29T04:44:00.950Z,3.41
2023-03-29T04:45:00.971Z,3.38
2023-03-29T04:46:00.938Z,3.35
2023-03-29T04:47:00.845Z,3.32
2023-03-29T04:48:01.153Z,3.30
2023-03-29T04:49:00.829Z,3.28
2023-03-29T04:50:00.863Z,3.27
2023-03-29T04:51:01.024Z,3.26
2023-03-29T04:52:00.850Z,3.25
2023-03-29T04:53:00.816Z,3.23
2023-03-29T04:54:00.778Z,3.22
2023-03-29T04:55:00.860Z,3.21
2023-03-29T04:56:00.988Z,3.20
2023-03-29T04:57:00.769Z,3.20
2023-03-29T04:58:00.782Z,3.20
2023-03-29T04:59:00.784Z,3.19
2023-03-29T05:00:00.681Z,3.18
2023-03-29T05:01:00.812Z,3.16
2023-03-29T05:02:00.719Z,3.15
2023-03-29T05:03:00.773Z,3.15
2023-03-29T05:04:00.779Z,3.13
2023-03-29T05:05:00.616Z,3.12
2023-03-29T05:06:00.604Z,3.11
2023-03-29T05:07:00.614Z,3.09
2023-03-29T05:08:00.619Z,3.08
2023-03-29T05:09:00.599Z,3.08
2023-03-29T05:10:00.565Z,3.11
2023-03-29T05:11:00.774Z,3.15
2023-03-29T05:12:00.528Z,3.17
2023-03-29T05:13:00.539Z,3.19
2023-03-29T05:14:00.537Z,3.19
2023-03-29T05:15:00.497Z,3.18
2023-03-29T05:16:00.522Z,3.17
2023-03-29T05:17:00.461Z,3.17
2023-03-29T05:18:00.473Z,3.16
2023-03-29T05:19:00.484Z,3.15
2023-03-29T05:20:00.520Z,3.15
2023-03-29T05:21:00.773Z,3.14
2023-03-29T05:22:00.422Z,3.14
2023-03-29T05:23:00.400Z,3.13
2023-03-29T05:24:00.415Z,3.12
2023-03-29T05:25:00.371Z,3.12
2023-03-29T05:26:00.420Z,3.11
2023-03-29T05:27:00.359Z,3.11
2023-03-29T05:28:00.336Z,3.10
2023-03-29T05:29:00.318Z,3.10
2023-03-29T05:30:00.331Z,3.11
2023-03-29T05:31:00.653Z,3.12
2023-03-29T05:32:00.334Z,3.14
2023-03-29T05:33:00.347Z,3.16
2023-03-29T05:34:00.254Z,3.18
2023-03-29T05:35:01.194Z,3.20
2023-03-29T05:36:00.304Z,3.23
2023-03-29T05:37:00.216Z,3.25
2023-03-29T05:38:00.267Z,3.26
2023-03-29T05:39:00.210Z,3.28
2023-03-29T05:40:06.082Z,3.28
2023-03-29T05:41:00.342Z,3.28
2023-03-29T05:42:00.178Z,3.28
2023-03-29T05:43:00.123Z,3.27
2023-03-29T05:44:00.170Z,3.26
2023-03-29T05:45:00.157Z,3.25
2023-03-29T05:46:00.168Z,3.25
2023-03-29T05:47:00.133Z,3.25
2023-03-29T05:48:00.176Z,3.26
2023-03-29T05:49:00.108Z,3.27
2023-03-29T05:50:00.104Z,3.28
2023-03-29T05:51:00.213Z,3.30
2023-03-29T05:52:00.025Z,3.32
2023-03-29T05:53:00.019Z,3.34
2023-03-29T05:53:59.995Z,3.36
2023-03-29T05:55:00.024Z,3.37
2023-03-29T05:56:00.045Z,3.38
2023-03-29T05:57:00.171Z,3.38
2023-03-29T05:57:59.981Z,3.38
2023-03-29T05:58:59.970Z,3.39
2023-03-29T05:59:59.914Z,3.39
2023-03-29T06:01:00.112Z,3.38
2023-03-29T06:02:00.631Z,3.38
2023-03-29T06:03:13.272Z,3.37
2023-03-29T06:03:59.935Z,3.36
2023-03-29T06:04:59.933Z,3.35
2023-03-29T06:05:59.852Z,3.33
2023-03-29T06:06:59.837Z,3.33
2023-03-29T06:07:59.863Z,3.32
2023-03-29T06:08:59.822Z,3.33
2023-03-29T06:09:59.793Z,3.33
2023-03-29T06:11:01.208Z,3.35
2023-03-29T06:11:59.772Z,3.37
2023-03-29T06:12:59.748Z,3.39
2023-03-29T06:13:59.777Z,3.41
2023-03-29T06:14:59.738Z,3.42
2023-03-29T06:15:59.729Z,3.44
2023-03-29T06:16:59.762Z,3.46
2023-03-29T06:17:59.739Z,3.47
2023-03-29T06:18:59.709Z,3.49
2023-03-29T06:19:59.720Z,3.50
2023-03-29T06:20:59.733Z,3.51
2023-03-29T06:21:59.638Z,3.52
2023-03-29T06:22:59.621Z,3.53
2023-03-29T06:23:59.664Z,3.55
2023-03-29T06:24:59.613Z,3.57
2023-03-29T06:25:59.631Z,3.59
2023-03-29T06:26:59.581Z,3.62
2023-03-29T06:27:59.568Z,3.66
2023-03-29T06:28:59.563Z,3.70
2023-03-29T06:29:59.533Z,3.73
2023-03-29T06:30:59.611Z,3.74
2023-03-29T06:31:59.535Z,3.74
2023-03-29T06:32:59.589Z,3.74
2023-03-29T06:33:59.483Z,3.73
2023-03-29T06:34:59.481Z,3.72
2023-03-29T06:35:59.504Z,3.72
2023-03-29T06:36:59.467Z,3.74
2023-03-29T06:37:59.835Z,3.76
2023-03-29T06:38:59.421Z,3.80
2023-03-29T06:39:59.431Z,3.84
2023-03-29T06:40:59.408Z,3.86
2023-03-29T06:42:02.087Z,3.88
2023-03-29T06:42:59.426Z,3.89
2023-03-29T06:43:59.406Z,3.90
2023-03-29T06:44:59.356Z,3.92
2023-03-29T06:45:59.353Z,3.94
2023-03-29T06:46:59.332Z,3.96
2023-03-29T06:47:59.386Z,3.99
2023-03-29T06:48:59.293Z,4.01
2023-03-29T06:49:59.310Z,4.03
2023-03-29T06:50:59.348Z,4.05
2023-03-29T06:51:59.299Z,4.06
2023-03-29T06:52:59.262Z,4.06
2023-03-29T06:53:59.222Z,4.07
2023-03-29T06:54:59.242Z,4.08
2023-03-29T06:55:59.258Z,4.10
2023-03-29T06:56:59.245Z,4.13
2023-03-29T06:58:01.652Z,4.15
2023-03-29T06:58:59.170Z,4.16
2023-03-29T06:59:59.147Z,4.15
2023-03-29T07:00:59.151Z,4.14
2023-03-29T07:01:59.237Z,4.14
2023-03-29T07:02:59.158Z,4.13
2023-03-29T07:03:59.143Z,4.14
2023-03-29T07:04:59.084Z,4.14
2023-03-29T07:05:59.073Z,4.14
2023-03-29T07:06:59.066Z,4.13
2023-03-29T07:07:59.085Z,4.14
2023-03-29T07:08:59.045Z,4.15
2023-03-29T07:09:59.015Z,4.15
2023-03-29T07:10:59.034Z,4.16
2023-03-29T07:11:59.010Z,4.17
2023-03-29T07:12:59.016Z,4.18
2023-03-29T07:13:59.000Z,4.21
2023-03-29T07:14:58.948Z,4.25
2023-03-29T07:15:58.981Z,4.29
2023-03-29T07:16:58.949Z,4.33
2023-03-29T07:17:58.989Z,4.36
2023-03-29T07:18:58.917Z,4.37
2023-03-29T07:19:58.932Z,4.38
2023-03-29T07:20:58.909Z,4.38
2023-03-29T07:21:58.880Z,4.40
2023-03-29T07:22:58.850Z,4.44
2023-03-29T07:23:58.843Z,4.49
2023-03-29T07:24:58.821Z,4.55
2023-03-29T07:25:58.883Z,4.62
2023-03-29T07:27:03.724Z,4.66
2023-03-29T07:27:58.826Z,4.69
2023-03-29T07:28:58.838Z,4.69
2023-03-29T07:29:58.756Z,4.69
2023-03-29T07:30:58.749Z,4.70
2023-03-29T07:31:58.796Z,4.71
2023-03-29T07:32:58.829Z,4.75
2023-03-29T07:33:58.720Z,4.81
2023-03-29T07:34:58.699Z,4.88
2023-03-29T07:35:58.712Z,4.95
2023-03-29T07:36:58.674Z,4.99
2023-03-29T07:37:58.694Z,5.02
2023-03-29T07:38:58.669Z,5.05
2023-03-29T07:39:58.646Z,5.07
2023-03-29T07:40:58.624Z,5.09
2023-03-29T07:41:58.626Z,5.12
2023-03-29T07:42:58.605Z,5.17
2023-03-29T07:43:58.605Z,5.24
2023-03-29T07:44:58.589Z,5.33
2023-03-29T07:45:58.580Z,5.42
2023-03-29T07:46:58.547Z,5.51
2023-03-29T07:47:58.999Z,5.60
2023-03-29T07:48:58.510Z,5.72
2023-03-29T07:49:58.539Z,5.84
2023-03-29T07:50:58.485Z,5.98
2023-03-29T07:51:58.487Z,6.13
2023-03-29T07:52:58.476Z,6.39
2023-03-29T07:53:58.450Z,6.69
2023-03-29T07:54:58.449Z,6.85
2023-03-29T07:55:58.459Z,6.89
2023-03-29T07:56:58.440Z,6.88
2023-03-29T07:57:58.394Z,6.85
2023-03-29T07:58:58.429Z,6.79
2023-03-29T07:59:58.406Z,6.73
2023-03-29T08:00:58.395Z,6.70
2023-03-29T08:01:58.385Z,6.69
2023-03-29T08:02:58.415Z,6.68
2023-03-29T08:03:58.492Z,6.67
2023-03-29T08:04:58.335Z,6.66
2023-03-29T08:05:58.337Z,6.67
2023-03-29T08:06:58.299Z,6.70
2023-03-29T08:07:58.294Z,6.75
2023-03-29T08:08:58.276Z,6.79
2023-03-29T08:09:58.258Z,6.82
2023-03-29T08:10:58.238Z,6.84
2023-03-29T08:11:58.221Z,6.88
2023-03-29T08:12:58.240Z,6.92
2023-03-29T08:13:58.231Z,6.96
2023-03-29T08:14:58.185Z,6.99
2023-03-29T08:15:58.243Z,7.01
2023-03-29T08:16:58.176Z,7.01
2023-03-29T08:17:58.205Z,7.03
2023-03-29T08:18:58.277Z,7.04
2023-03-29T08:19:58.137Z,7.04
2023-03-29T08:20:58.141Z,7.02
2023-03-29T08:21:58.086Z,6.99
2023-03-29T08:22:58.102Z,6.97
2023-03-29T08:23:58.063Z,6.95
2023-03-29T08:24:58.054Z,6.93
2023-03-29T08:25:58.066Z,6.91
2023-03-29T08:26:58.025Z,6.90
2023-03-29T08:27:58.055Z,6.91
2023-03-29T08:28:58.022Z,6.92
2023-03-29T08:29:57.992Z,6.93
2023-03-29T08:30:58.031Z,6.94
2023-03-29T08:31:58.005Z,6.94
2023-03-29T08:32:58.030Z,6.95
2023-03-29T08:33:57.945Z,6.96
2023-03-29T08:34:57.938Z,6.99
2023-03-29T08:35:58.014Z,7.01
2023-03-29T08:36:57.896Z,7.02
2023-03-29T08:37:58.303Z,7.02
2023-03-29T08:38:57.904Z,7.01
2023-03-29T08:39:57.878Z,7.01
2023-03-29T08:40:57.882Z,7.00
2023-03-29T08:41:57.847Z,6.99
2023-03-29T08:42:57.816Z,6.97
2023-03-29T08:43:57.844Z,6.96
2023-03-29T08:44:57.812Z,6.97
2023-03-29T08:45:57.828Z,6.99
2023-03-29T08:46:57.888Z,7.03
2023-03-29T08:47:57.839Z,7.06
2023-03-29T08:48:57.739Z,7.11
2023-03-29T08:49:57.822Z,7.17
2023-03-29T08:50:57.721Z,7.23
2023-03-29T08:51:57.720Z,7.29
2023-03-29T08:52:57.706Z,7.33
2023-03-29T08:53:57.666Z,7.34
2023-03-29T08:54:57.675Z,7.35
2023-03-29T08:55:57.681Z,7.37
2023-03-29T08:56:57.701Z,7.39
2023-03-29T08:57:57.655Z,7.40
2023-03-29T08:58:57.602Z,7.40
2023-03-29T08:59:57.605Z,7.40
2023-03-29T09:00:57.600Z,7.40
2023-03-29T09:01:57.644Z,7.39
2023-03-29T09:02:57.631Z,7.38
2023-03-29T09:03:57.654Z,7.37
2023-03-29T09:04:57.547Z,7.35
2023-03-29T09:05:57.568Z,7.34
2023-03-29T09:06:57.545Z,7.34
2023-03-29T09:07:57.514Z,7.35
2023-03-29T09:08:57.489Z,7.38
2023-03-29T09:09:57.481Z,7.43
2023-03-29T09:10:57.522Z,7.47
2023-03-29T09:11:57.451Z,7.51
2023-03-29T09:12:57.536Z,7.55
2023-03-29T09:13:57.477Z,7.59
2023-03-29T09:14:57.392Z,7.64
2023-03-29T09:15:57.414Z,7.69
2023-03-29T09:16:57.375Z,7.74
2023-03-29T09:17:57.405Z,7.79
2023-03-29T09:18:57.356Z,7.83
2023-03-29T09:19:57.383Z,7.86
2023-03-29T09:20:57.345Z,7.89
2023-03-29T09:21:57.325Z,7.92
2023-03-29T09:22:57.305Z,7.95
2023-03-29T09:23:57.294Z,7.98
2023-03-29T09:24:57.268Z,8.01
2023-03-29T09:25:57.291Z,8.03
2023-03-29T09:26:57.262Z,8.05
2023-03-29T09:27:57.252Z,8.07
2023-03-29T09:28:57.258Z,8.10
2023-03-29T09:29:57.202Z,8.12
2023-03-29T09:30:57.204Z,8.15
2023-03-29T09:31:57.352Z,8.17
2023-03-29T09:32:57.268Z,8.20
2023-03-29T09:33:57.212Z,8.25
2023-03-29T09:34:57.180Z,8.28
2023-03-29T09:35:57.189Z,8.30
2023-03-29T09:36:57.175Z,8.33
2023-03-29T09:37:57.157Z,8.37
2023-03-29T09:38:57.107Z,8.40
2023-03-29T09:39:57.079Z,8.44
2023-03-29T09:40:57.057Z,8.47
2023-03-29T09:41:57.052Z,8.50
2023-03-29T09:42:57.036Z,8.52
2023-03-29T09:43:57.060Z,8.54
2023-03-29T09:44:57.013Z,8.58
2023-03-29T09:45:57.061Z,8.62
2023-03-29T09:46:56.988Z,8.67
2023-03-29T09:47:57.071Z,8.72
2023-03-29T09:48:56.982Z,8.78
2023-03-29T09:49:57.003Z,8.85
2023-03-29T09:50:56.982Z,8.93
2023-03-29T09:51:56.906Z,9.00
2023-03-29T09:52:56.896Z,9.05
2023-03-29T09:53:56.926Z,9.08
2023-03-29T09:54:56.880Z,9.10
2023-03-29T09:55:56.916Z,9.13
2023-03-29T09:56:56.864Z,9.17
2023-03-29T09:57:56.836Z,9.18
2023-03-29T09:58:56.865Z,9.16
2023-03-29T09:59:56.816Z,9.14
2023-03-29T10:00:57.012Z,9.13
2023-03-29T10:01:56.829Z,9.10
2023-03-29T10:02:56.928Z,9.07
2023-03-29T10:03:56.812Z,9.07
2023-03-29T10:04:56.766Z,9.08
2023-03-29T10:05:56.741Z,9.13
2023-03-29T10:06:56.728Z,9.19
2023-03-29T10:07:56.735Z,9.25
2023-03-29T10:08:56.741Z,9.33
2023-03-29T10:09:56.705Z,9.40
2023-03-29T10:10:56.683Z,9.43
2023-03-29T10:11:56.678Z,9.48
2023-03-29T10:12:56.692Z,9.55
2023-03-29T10:13:56.681Z,9.58
2023-03-29T10:14:56.658Z,9.59
2023-03-29T10:15:56.657Z,9.61
2023-03-29T10:16:56.692Z,9.63
2023-03-29T10:17:56.667Z,9.65
2023-03-29T10:18:56.588Z,9.69
2023-03-29T10:19:57.785Z,9.74
2023-03-29T10:20:57.574Z,9.79
2023-03-29T10:21:56.680Z,9.83
2023-03-29T10:22:56.600Z,9.84
2023-03-29T10:23:56.685Z,9.84
2023-03-29T10:24:56.579Z,9.84
2023-03-29T10:25:56.511Z,9.84
2023-03-29T10:26:56.481Z,9.83
2023-03-29T10:27:56.444Z,9.80
2023-03-29T10:28:56.449Z,9.76
2023-03-29T10:29:56.432Z,9.79
2023-03-29T10:30:56.450Z,9.84
2023-03-29T10:31:56.492Z,9.88
2023-03-29T10:32:56.414Z,9.93
2023-03-29T10:33:56.378Z,9.98
2023-03-29T10:34:56.364Z,10.05
2023-03-29T10:35:56.343Z,10.10
2023-03-29T10:36:56.345Z,10.09
2023-03-29T10:37:56.355Z,10.07
2023-03-29T10:38:56.312Z,10.06
2023-03-29T10:39:56.321Z,10.06
2023-03-29T10:40:56.298Z,10.04
2023-03-29T10:41:56.328Z,10.00
2023-03-29T10:42:56.251Z,9.93
2023-03-29T10:43:56.276Z,9.87
2023-03-29T10:44:56.234Z,9.81
2023-03-29T10:45:56.320Z,9.75
2023-03-29T10:46:56.218Z,9.73
2023-03-29T10:47:56.305Z,9.75
2023-03-29T10:48:56.179Z,9.77
2023-03-29T10:49:57.122Z,9.80
2023-03-29T10:50:56.178Z,9.86
2023-03-29T10:51:56.198Z,9.91
2023-03-29T10:52:56.135Z,9.95
2023-03-29T10:53:56.112Z,9.97
2023-03-29T10:54:56.110Z,9.98
2023-03-29T10:55:56.126Z,10.00
2023-03-29T10:56:56.146Z,10.00
2023-03-29T10:57:56.213Z,10.01
2023-03-29T10:58:56.095Z,10.04
2023-03-29T10:59:56.052Z,10.07
2023-03-29T11:00:56.032Z,10.12
2023-03-29T11:01:56.108Z,10.17
2023-03-29T11:02:56.048Z,10.25
2023-03-29T11:03:56.109Z,10.35
2023-03-29T11:04:55.989Z,10.43
2023-03-29T11:05:55.972Z,10.52
2023-03-29T11:06:55.939Z,10.60
2023-03-29T11:07:55.965Z,10.64
2023-03-29T11:08:55.927Z,10.65
2023-03-29T11:09:55.892Z,10.67
2023-03-29T11:10:55.907Z,10.72
2023-03-29T11:12:04.695Z,10.76
2023-03-29T11:12:55.919Z,10.78
2023-03-29T11:13:58.022Z,10.77
2023-03-29T11:14:55.828Z,10.79
2023-03-29T11:15:55.894Z,10.83
2023-03-29T11:16:55.824Z,10.90
2023-03-29T11:17:55.902Z,10.99
2023-03-29T11:18:55.800Z,11.05
2023-03-29T11:19:55.793Z,11.08
2023-03-29T11:20:55.761Z,11.10
2023-03-29T11:21:55.756Z,11.13
2023-03-29T11:22:55.729Z,11.17
2023-03-29T11:23:55.728Z,11.25
2023-03-29T11:24:55.715Z,11.30
2023-03-29T11:25:55.756Z,11.32
2023-03-29T11:26:55.690Z,11.33
2023-03-29T11:27:55.679Z,11.34
2023-03-29T11:28:55.649Z,11.37
2023-03-29T11:29:55.633Z,11.43
2023-03-29T11:30:55.682Z,11.53
2023-03-29T11:31:55.764Z,11.68
2023-03-29T11:32:55.641Z,11.89
2023-03-29T11:33:55.595Z,12.10
2023-03-29T11:34:55.580Z,12.31
2023-03-29T11:35:55.623Z,12.56
2023-03-29T11:36:55.546Z,12.82
2023-03-29T11:37:55.582Z,13.05
2023-03-29T11:38:55.548Z,13.22
2023-03-29T11:39:55.514Z,13.37
2023-03-29T11:40:55.667Z,13.48
2023-03-29T11:41:55.496Z,13.52
2023-03-29T11:42:55.479Z,13.47
2023-03-29T11:43:55.526Z,13.34
2023-03-29T11:44:55.487Z,13.23
2023-03-29T11:45:55.442Z,13.17
2023-03-29T11:46:55.488Z,13.11
2023-03-29T11:47:55.551Z,13.05
2023-03-29T11:48:55.460Z,13.04
2023-03-29T11:49:55.411Z,13.07
2023-03-29T11:50:55.435Z,13.12
2023-03-29T11:51:55.370Z,13.16
2023-03-29T11:52:55.353Z,13.14
2023-03-29T11:53:55.353Z,13.10
2023-03-29T11:54:55.350Z,13.02
2023-03-29T11:55:55.362Z,12.91
2023-03-29T11:56:55.318Z,12.80
2023-03-29T11:57:55.335Z,12.75
2023-03-29T11:58:55.297Z,12.77
2023-03-29T11:59:55.276Z,12.83
2023-03-29T12:00:55.240Z,12.87
2023-03-29T12:01:55.292Z,12.89
2023-03-29T12:02:55.321Z,12.90
2023-03-29T12:03:55.396Z,12.89
2023-03-29T12:04:55.208Z,12.87
2023-03-29T12:05:55.181Z,12.86
2023-03-29T12:06:55.176Z,12.89
2023-03-29T12:07:55.204Z,12.93
2023-03-29T12:08:55.164Z,12.97
2023-03-29T12:09:55.156Z,13.03
2023-03-29T12:10:55.133Z,13.03
2023-03-29T12:11:55.104Z,13.01
2023-03-29T12:12:55.088Z,12.95
2023-03-29T12:13:55.141Z,12.89
2023-03-29T12:14:55.089Z,12.83
2023-03-29T12:15:55.047Z,12.76
2023-03-29T12:16:55.068Z,12.72
2023-03-29T12:17:55.115Z,12.74
2023-03-29T12:18:55.016Z,12.84
2023-03-29T12:19:55.036Z,12.99
2023-03-29T12:20:55.048Z,13.15
2023-03-29T12:21:55.031Z,13.29
2023-03-29T12:22:55.023Z,13.39
2023-03-29T12:23:54.956Z,13.45
2023-03-29T12:24:54.960Z,13.44
2023-03-29T12:25:54.959Z,13.38
2023-03-29T12:26:54.911Z,13.32
2023-03-29T12:27:54.911Z,13.29
2023-03-29T12:28:54.903Z,13.22
2023-03-29T12:29:54.902Z,13.14
2023-03-29T12:30:54.853Z,13.10
2023-03-29T12:31:55.019Z,13.11
2023-03-29T12:32:54.922Z,13.13
2023-03-29T12:33:54.843Z,13.15
2023-03-29T12:34:54.857Z,13.18
2023-03-29T12:35:54.914Z,13.23
2023-03-29T12:36:54.831Z,13.30
2023-03-29T12:37:54.839Z,13.37
2023-03-29T12:38:54.806Z,13.43
2023-03-29T12:39:54.754Z,13.50
2023-03-29T12:40:54.757Z,13.51
2023-03-29T12:41:54.723Z,13.47
2023-03-29T12:42:54.724Z,13.45
2023-03-29T12:43:54.720Z,13.38
2023-03-29T12:44:54.717Z,13.30
2023-03-29T12:45:54.804Z,13.30
2023-03-29T12:46:54.658Z,13.34
2023-03-29T12:47:54.727Z,13.38
2023-03-29T12:48:54.639Z,13.40
2023-03-29T12:49:54.685Z,13.39
2023-03-29T12:50:54.623Z,13.36
2023-03-29T12:51:54.601Z,13.34
2023-03-29T12:52:54.572Z,13.37
2023-03-29T12:53:54.588Z,13.36
2023-03-29T12:54:54.594Z,13.35
2023-03-29T12:55:54.578Z,13.34
2023-03-29T12:56:54.621Z,13.31
2023-03-29T12:57:54.607Z,13.31
2023-03-29T12:58:54.581Z,13.36
2023-03-29T12:59:54.545Z,13.40
2023-03-29T13:00:54.528Z,13.41
2023-03-29T13:01:54.584Z,13.41
2023-03-29T13:02:54.478Z,13.42
2023-03-29T13:03:54.437Z,13.48
2023-03-29T13:04:54.446Z,13.62
2023-03-29T13:05:54.425Z,13.80
2023-03-29T13:06:54.422Z,13.99
2023-03-29T13:07:54.426Z,14.18
2023-03-29T13:08:54.369Z,14.41
2023-03-29T13:09:54.364Z,14.67
2023-03-29T13:10:54.344Z,14.89
2023-03-29T13:11:54.352Z,15.09
2023-03-29T13:12:54.342Z,15.21